Etusivu
METAR-TAF:

METAR-TAF

Lentoasemat :

Tillamook, Oregon, Yhdysvallat

Leveyspiiri: 45-25-06N, Pituuspiiri: 123-48-52W, korkeus merenpinnasta: 11 m

Tämänhetkinen sää

Tämä raportti tehtiin 23 minuuttia sitten, kello 15.15 UTC
Tuuli 9 kn etelästä/lounaasta puuskistuen 14 kn:hen
Lämpötila 12°C
Kosteus 94%
Ilmanpaine 1019 hPa
Näkyvyys: 8.0 km
Hajanaisia pilviä 900 ft:n korkeudessa
Pilvistä 1700 ft:n korkeudessa
tihkusadetta

METAR: KTMK 301515Z AUTO 21009G14KT 5SM DZ SCT009 OVC017 12/11 A3008 RMK AO2 P0001

Aika: 08:38 (15:38 UTC)


TAF: puuttuu

Säähavainnot ja -ennusteet yli 4000 lentoasemalta (METAR- ja TAF-raportit).

Käytössä olevat sääasemat on merkitty karttaan keltaisilla ja punaisilla pisteillä.

Aseta hiiri pisteen päälle nähdäksesi sääaseman nimen.

Klikkaa sitten nähdäksesi säähavainnot ja -ennusteet.

Kartan vaihtaminen: klikkaa mustalla rastilla varustettuja vihreitä pisteitä, niin voit zoomata sisään; viivalla varustettua vihreää pistettä, niin voit zoomata ulos tai vihreitä nuolia, niin pääset viereisille kartoille.


METAR-TAF: